createdAt,value
2018-09-22T00:04:10.392Z,87.14
2018-09-22T00:09:13.725Z,87.56
2018-09-22T00:14:17.937Z,87.13
2018-09-22T00:19:21.191Z,87.96
2018-09-22T00:24:24.383Z,87.81
2018-09-22T00:29:27.734Z,85.58
2018-09-22T00:34:30.906Z,83.26
2018-09-22T00:39:34.110Z,82.88
2018-09-22T00:44:37.345Z,81.97
2018-09-22T00:49:40.553Z,82.38
2018-09-22T00:54:43.734Z,83.55
2018-09-22T00:59:46.983Z,84.96
2018-09-22T01:04:50.385Z,83.86
2018-09-22T01:09:53.558Z,83.41
2018-09-22T01:14:56.735Z,82.82
2018-09-22T01:19:59.939Z,83.01
2018-09-22T01:25:03.134Z,83.06
2018-09-22T01:30:06.460Z,82.61
2018-09-22T01:35:09.834Z,83.21
2018-09-22T01:40:13.076Z,83.89
2018-09-22T01:45:16.383Z,84.15
2018-09-22T01:50:19.602Z,84.37
2018-09-22T01:55:22.956Z,84.18
2018-09-22T02:00:26.122Z,83.84
2018-09-22T02:05:29.260Z,83.50
2018-09-22T02:10:32.475Z,85.14
2018-09-22T02:15:37.760Z,84.55
2018-09-22T02:20:40.898Z,85.03
2018-09-22T02:25:44.149Z,85.76
2018-09-22T02:30:47.447Z,85.90
2018-09-22T02:35:50.983Z,85.83
2018-09-22T02:40:54.205Z,85.35
2018-09-22T02:45:57.427Z,84.27
2018-09-22T02:51:00.541Z,83.76
2018-09-22T02:56:03.750Z,84.95
2018-09-22T03:01:06.953Z,84.25
2018-09-22T03:06:10.172Z,84.44
2018-09-22T03:11:13.480Z,83.62
2018-09-22T03:16:17.123Z,83.53
2018-09-22T03:21:22.350Z,84.11
2018-09-22T03:26:25.778Z,83.98
2018-09-22T03:31:31.520Z,84.07
2018-09-22T03:36:34.685Z,84.12
2018-09-22T03:41:37.856Z,82.35
2018-09-22T03:46:41.066Z,81.38
2018-09-22T03:51:44.333Z,81.10
2018-09-22T03:56:47.634Z,79.71
2018-09-22T04:01:50.913Z,79.82
2018-09-22T04:06:54.106Z,80.68
2018-09-22T04:11:57.265Z,80.41
2018-09-22T04:17:00.477Z,80.63
2018-09-22T04:22:03.641Z,80.80
2018-09-22T04:27:06.879Z,79.33
2018-09-22T04:32:10.177Z,77.11
2018-09-22T04:37:13.617Z,76.69
2018-09-22T04:42:16.892Z,76.14
2018-09-22T04:47:20.132Z,78.54
2018-09-22T04:52:23.489Z,78.57
2018-09-22T04:57:26.705Z,78.59
2018-09-22T05:02:29.872Z,76.65
2018-09-22T05:07:33.043Z,77.30
2018-09-22T05:12:37.345Z,78.00
2018-09-22T05:17:40.567Z,79.31
2018-09-22T05:22:44.142Z,78.67
2018-09-22T05:27:47.409Z,81.33
2018-09-22T05:32:50.750Z,81.28
2018-09-22T05:37:54.098Z,82.92
2018-09-22T05:42:57.325Z,83.82
2018-09-22T05:48:00.522Z,83.49
2018-09-22T05:53:03.675Z,83.30
2018-09-22T05:58:06.912Z,82.51
2018-09-22T06:03:10.129Z,80.91
2018-09-22T06:08:14.642Z,79.90
2018-09-22T06:13:18.034Z,79.58
2018-09-22T06:18:21.436Z,79.17
2018-09-22T06:23:24.749Z,77.33
2018-09-22T06:28:27.857Z,75.47
2018-09-22T06:33:31.067Z,71.69
2018-09-22T06:38:34.302Z,70.99
2018-09-22T06:43:37.502Z,72.29
2018-09-22T06:48:44.420Z,71.81
2018-09-22T06:54:01.710Z,71.13
2018-09-22T06:59:07.482Z,69.25
2018-09-22T07:04:11.689Z,68.46
2018-09-22T07:09:22.489Z,67.63
2018-09-22T07:14:30.108Z,67.92
2018-09-22T07:19:33.396Z,66.51
2018-09-22T07:24:36.874Z,65.19
2018-09-22T07:29:40.072Z,64.10
2018-09-22T07:34:43.949Z,64.59
2018-09-22T07:39:47.329Z,65.35
2018-09-22T07:44:50.942Z,65.07
2018-09-22T07:49:54.156Z,64.73
2018-09-22T07:54:57.375Z,62.27
2018-09-22T08:00:00.577Z,61.95
2018-09-22T08:05:04.164Z,61.35
2018-09-22T08:10:07.595Z,60.38
2018-09-22T08:15:12.342Z,59.29
2018-09-22T08:20:15.880Z,58.80
2018-09-22T08:25:19.124Z,60.36
2018-09-22T08:30:22.493Z,59.24
2018-09-22T08:35:25.623Z,60.25
2018-09-22T08:40:28.826Z,58.40
2018-09-22T08:45:32.034Z,56.48
2018-09-22T08:50:35.298Z,54.82
2018-09-22T08:55:38.480Z,53.77
2018-09-22T09:00:41.692Z,51.79
2018-09-22T09:05:45.055Z,52.98
2018-09-22T09:10:48.252Z,52.06
2018-09-22T09:15:51.537Z,53.94
2018-09-22T09:20:54.777Z,54.55
2018-09-22T09:25:57.916Z,54.01
2018-09-22T09:31:01.374Z,51.43
2018-09-22T09:36:04.751Z,52.40
2018-09-22T09:41:08.005Z,52.99
2018-09-22T09:46:11.261Z,54.61
2018-09-22T09:51:14.572Z,51.54
2018-09-22T09:56:17.994Z,52.63
2018-09-22T10:01:21.254Z,53.75
2018-09-22T10:06:24.510Z,52.66
2018-09-22T10:11:27.710Z,51.50
2018-09-22T10:16:30.988Z,51.95
2018-09-22T10:21:34.200Z,51.37
2018-09-22T10:26:37.378Z,50.47
2018-09-22T10:31:40.580Z,51.62
2018-09-22T10:36:43.925Z,52.34
2018-09-22T10:41:47.184Z,54.10
2018-09-22T10:46:50.562Z,56.03
2018-09-22T10:51:54.490Z,54.85
2018-09-22T10:56:57.723Z,53.74
2018-09-22T11:02:01.008Z,48.41
2018-09-22T11:07:04.182Z,46.01
2018-09-22T11:12:07.436Z,46.97
2018-09-22T11:17:10.778Z,45.90
2018-09-22T11:22:14.136Z,45.89
2018-09-22T11:27:17.341Z,42.55
2018-09-22T11:32:20.700Z,42.90
2018-09-22T11:37:23.926Z,43.63
2018-09-22T11:42:27.113Z,41.66
2018-09-22T11:47:30.295Z,42.27
2018-09-22T11:52:34.408Z,44.65
2018-09-22T11:57:37.560Z,45.53
2018-09-22T12:02:40.761Z,42.34
2018-09-22T12:07:44.911Z,41.67
2018-09-22T12:12:48.217Z,42.44
2018-09-22T12:17:51.524Z,42.31
2018-09-22T12:22:54.749Z,42.64
2018-09-22T12:27:58.007Z,37.84
2018-09-22T12:33:01.257Z,37.62
2018-09-22T12:38:04.785Z,39.09
2018-09-22T12:43:07.975Z,40.68
2018-09-22T12:48:11.189Z,37.06
2018-09-22T12:53:14.619Z,38.90
2018-09-22T12:58:17.853Z,37.72
2018-09-22T13:03:21.303Z,38.79
2018-09-22T13:08:24.535Z,38.18
2018-09-22T13:13:27.843Z,37.89
2018-09-22T13:18:30.914Z,37.91
2018-09-22T13:23:34.106Z,38.71
2018-09-22T13:28:37.351Z,39.67
2018-09-22T13:33:40.505Z,40.13
2018-09-22T13:38:43.869Z,39.59
2018-09-22T13:43:47.122Z,39.79
2018-09-22T13:48:50.384Z,39.71
2018-09-22T13:53:53.579Z,40.19
2018-09-22T13:58:56.864Z,40.52
2018-09-22T14:04:00.064Z,38.62
2018-09-22T14:09:05.239Z,38.01
2018-09-22T14:14:09.588Z,37.69
2018-09-22T14:19:12.837Z,38.92
2018-09-22T14:24:16.093Z,38.83
2018-09-22T14:29:19.387Z,39.39
2018-09-22T14:34:22.612Z,38.80
2018-09-22T14:39:25.824Z,38.31
2018-09-22T14:44:31.230Z,38.99
2018-09-22T14:49:34.381Z,39.49
2018-09-22T14:54:37.574Z,39.27
2018-09-22T14:59:40.809Z,38.85
2018-09-22T15:04:44.108Z,38.81
2018-09-22T15:09:47.357Z,38.41
2018-09-22T15:14:50.637Z,39.53
2018-09-22T15:19:53.853Z,39.72
2018-09-22T15:24:56.990Z,38.89
2018-09-22T15:30:00.216Z,40.25
2018-09-22T15:35:03.474Z,40.06
2018-09-22T15:40:09.609Z,40.56
2018-09-22T15:45:19.389Z,40.62
2018-09-22T15:50:22.578Z,41.50
2018-09-22T15:55:25.836Z,43.07
2018-09-22T16:00:29.100Z,42.46
2018-09-22T16:05:32.348Z,42.17
2018-09-22T16:10:35.570Z,42.59
2018-09-22T16:15:38.774Z,43.95
2018-09-22T16:20:42.023Z,44.89
2018-09-22T16:25:45.277Z,45.30
2018-09-22T16:30:48.712Z,45.09
2018-09-22T16:35:52.019Z,46.18
2018-09-22T16:40:55.222Z,46.97
2018-09-22T16:45:58.402Z,47.45
2018-09-22T16:51:01.659Z,48.16
2018-09-22T16:56:04.868Z,49.19
2018-09-22T17:01:08.126Z,48.50
2018-09-22T17:06:11.357Z,49.73
2018-09-22T17:11:14.542Z,49.83
2018-09-22T17:16:17.901Z,50.64
2018-09-22T17:21:21.255Z,50.81
2018-09-22T17:26:24.878Z,50.90
2018-09-22T17:31:30.287Z,51.17
2018-09-22T17:36:34.165Z,51.53
2018-09-22T17:41:37.355Z,51.74
2018-09-22T17:46:40.560Z,51.67
2018-09-22T17:51:43.912Z,51.39
2018-09-22T17:56:47.426Z,52.38
2018-09-22T18:01:50.608Z,51.96
2018-09-22T18:06:53.830Z,52.15
2018-09-22T18:11:57.057Z,52.49
2018-09-22T18:17:00.255Z,53.07
2018-09-22T18:22:03.824Z,53.75
2018-09-22T18:27:07.025Z,53.32
2018-09-22T18:32:11.016Z,52.71
2018-09-22T18:37:14.744Z,53.87
2018-09-22T18:42:17.980Z,53.91
2018-09-22T18:47:21.211Z,53.13
2018-09-22T18:52:24.467Z,53.90
2018-09-22T18:57:28.078Z,54.63
2018-09-22T19:02:31.430Z,54.36
2018-09-22T19:07:59.309Z,53.68
2018-09-22T19:13:16.111Z,52.87
2018-09-22T19:18:21.967Z,58.10
2018-09-22T19:23:25.445Z,65.29
2018-09-22T19:28:28.966Z,71.43
2018-09-22T19:33:32.175Z,72.89
2018-09-22T19:38:35.383Z,73.62
2018-09-22T19:43:38.658Z,75.86
2018-09-22T19:48:41.808Z,75.09
2018-09-22T19:53:45.417Z,77.02
2018-09-22T19:58:48.838Z,78.39
2018-09-22T20:03:52.064Z,78.94
2018-09-22T20:08:55.931Z,79.24
2018-09-22T20:13:59.166Z,80.42
2018-09-22T20:19:02.442Z,77.28
2018-09-22T20:24:05.792Z,78.12
2018-09-22T20:29:08.972Z,78.63
2018-09-22T20:34:15.540Z,79.58
2018-09-22T20:39:21.042Z,80.11
2018-09-22T20:44:26.635Z,81.63
2018-09-22T20:49:30.514Z,82.34
2018-09-22T20:54:35.247Z,83.29
2018-09-22T20:59:38.808Z,83.82
2018-09-22T21:04:42.646Z,83.70
2018-09-22T21:09:46.039Z,81.61
2018-09-22T21:14:49.324Z,81.00
2018-09-22T21:19:52.557Z,83.23
2018-09-22T21:24:55.832Z,82.18
2018-09-22T21:29:59.133Z,83.47
2018-09-22T21:35:02.322Z,84.16
2018-09-22T21:40:05.638Z,82.28
2018-09-22T21:45:08.850Z,83.92
2018-09-22T21:55:21.455Z,84.89
2018-09-22T22:00:24.813Z,85.25
2018-09-22T22:05:28.033Z,86.93
2018-09-22T22:10:31.256Z,87.50
2018-09-22T22:15:34.449Z,87.12
2018-09-22T22:20:37.613Z,87.99
2018-09-22T22:25:40.949Z,87.34
2018-09-22T22:30:44.150Z,87.12
2018-09-22T22:35:47.381Z,87.33
2018-09-22T22:40:50.613Z,87.88
2018-09-22T22:45:53.782Z,88.83
2018-09-22T22:50:57.132Z,90.54
2018-09-22T22:56:00.310Z,91.12
2018-09-22T23:01:03.811Z,91.70
2018-09-22T23:06:06.978Z,91.53
2018-09-22T23:11:10.167Z,92.07
2018-09-22T23:16:13.421Z,91.58
2018-09-22T23:21:16.623Z,91.89
2018-09-22T23:26:19.986Z,92.22
2018-09-22T23:31:23.143Z,92.60
2018-09-22T23:36:26.484Z,92.96
2018-09-22T23:41:29.803Z,93.21
2018-09-22T23:46:33.030Z,93.84
2018-09-22T23:51:36.338Z,93.56
2018-09-22T23:56:39.490Z,93.95
